首页
METAR-TAF:

METAR-TAF

机场 :

拉吉夫·甘地国际机场

海得拉巴, 印度

纬度: 17-14-00N, 经度: 078-26-00E, 海拔: 617米

当前天气观测

该预报发布于30分钟前的13:00 UTC
风速6节,风向北转西北
温度 26°C
湿度 84%
气压 1008 hPa
能見度: 5000
散云层高于1500英尺
少量云层高于3000英尺, 积雨云.
多云层高于8000英尺
霾,

METAR: VOHS 171300Z 33006KT 5000 HZ SCT015 FEW030CB BKN080 26/23 Q1008 NOSIG

时间: 19:00 (13:30 UTC)

预报

该预报发布于2小时和30分钟前的11:00 UTC
预报有效从17日的 12点(UTC)到 18日的 18点(UTC)
风速10节,风向西
能見度: 6000
散云层高于1500英尺
散云层高于2500英尺
短暂存在
从 17日的 12点(UTC)到 17日的 16点(UTC)
风速10节,风向西
能見度: 5000
散云层高于1500英尺
多云层高于8000英尺
毛毛雨
短暂存在
从 17日的 23点(UTC)到 18日的 03点(UTC)
风速4节,风向多变
能見度: 3000
散云层高于1000英尺
散云层高于1500英尺
多云层高于8000英尺
毛毛雨, 轻雾
成为
从 18日的 04点(UTC)到 18日的 06点(UTC)
风速10节,风向西转西南
能見度: 6000
散云层高于1500英尺
散云层高于2500英尺
短暂存在
从 18日的 12点(UTC)到 18日的 16点(UTC)
少量云层高于3000英尺, 积雨云.

TAF: VOHS 171100Z 1712/1818 27010KT 6000 SCT015 SCT025 TEMPO 1712/1716 26010KT 5000 .RA DZ SCT015 BKN080 TEMPO 1723/1803 VRB04KT 3000 DZ BR SCT010 SCT015 BKN080 BECMG 1804/1806 25010KT 6000 SCT015 SCT025 TEMPO 1812/1816 FEW030CB

超过4000个机场的气象观测和天气预报(METAR&TAF报告)。

可查询的气象台以黄色和红色小点在地图上表示。

将鼠标移到小点上方,可查看气象台名称。

然后点击查看天气观测和预报。

如需切换地图:点击带黑十字的绿色按钮放大地图;点击带横线的绿色按钮缩小地图;或者点击绿色箭头查看邻近地区的地图。


METAR-TAF: